sensor_id;sensor_type;location;lat;lon;timestamp;temperature;humidity
2995;DHT22;35277;49.890;8.222;2023-12-14T00:01:19;22.50;69.80
2995;DHT22;35277;49.890;8.222;2023-12-14T00:03:47;22.50;69.90
2995;DHT22;35277;49.890;8.222;2023-12-14T00:06:15;22.50;69.80
2995;DHT22;35277;49.890;8.222;2023-12-14T00:08:42;22.50;69.80
2995;DHT22;35277;49.890;8.222;2023-12-14T00:11:11;22.50;69.80
2995;DHT22;35277;49.890;8.222;2023-12-14T00:13:40;22.50;69.80
2995;DHT22;35277;49.890;8.222;2023-12-14T00:16:08;22.50;69.80
2995;DHT22;35277;49.890;8.222;2023-12-14T00:18:36;22.50;70.60
2995;DHT22;35277;49.890;8.222;2023-12-14T00:21:05;22.50;69.80
2995;DHT22;35277;49.890;8.222;2023-12-14T00:23:33;22.50;69.80
2995;DHT22;35277;49.890;8.222;2023-12-14T00:26:01;22.50;69.80
2995;DHT22;35277;49.890;8.222;2023-12-14T00:28:29;22.50;69.70
2995;DHT22;35277;49.890;8.222;2023-12-14T00:31:01;22.50;69.70
2995;DHT22;35277;49.890;8.222;2023-12-14T00:33:29;22.50;69.70
2995;DHT22;35277;49.890;8.222;2023-12-14T00:35:57;22.50;69.70
2995;DHT22;35277;49.890;8.222;2023-12-14T00:38:25;22.50;69.70
2995;DHT22;35277;49.890;8.222;2023-12-14T00:40:53;22.50;70.50
2995;DHT22;35277;49.890;8.222;2023-12-14T00:43:21;22.50;69.70
2995;DHT22;35277;49.890;8.222;2023-12-14T00:45:49;22.50;69.70
2995;DHT22;35277;49.890;8.222;2023-12-14T00:48:18;22.50;69.60
2995;DHT22;35277;49.890;8.222;2023-12-14T00:50:46;22.50;69.70
2995;DHT22;35277;49.890;8.222;2023-12-14T00:53:13;22.50;69.60
2995;DHT22;35277;49.890;8.222;2023-12-14T00:55:41;22.50;69.60
2995;DHT22;35277;49.890;8.222;2023-12-14T00:58:09;22.50;69.60
2995;DHT22;35277;49.890;8.222;2023-12-14T01:00:39;22.50;69.60
2995;DHT22;35277;49.890;8.222;2023-12-14T01:03:07;22.50;69.60
2995;DHT22;35277;49.890;8.222;2023-12-14T01:05:36;22.50;69.60
2995;DHT22;35277;49.890;8.222;2023-12-14T01:08:04;22.50;69.60
2995;DHT22;35277;49.890;8.222;2023-12-14T01:10:32;22.50;69.60
2995;DHT22;35277;49.890;8.222;2023-12-14T01:13:00;22.50;70.40
2995;DHT22;35277;49.890;8.222;2023-12-14T01:15:28;22.50;69.50
2995;DHT22;35277;49.890;8.222;2023-12-14T01:17:56;22.50;69.50
2995;DHT22;35277;49.890;8.222;2023-12-14T01:20:24;22.50;69.50
2995;DHT22;35277;49.890;8.222;2023-12-14T01:22:53;22.50;69.50
2995;DHT22;35277;49.890;8.222;2023-12-14T01:25:21;22.50;69.50
2995;DHT22;35277;49.890;8.222;2023-12-14T01:27:49;22.50;69.50
2995;DHT22;35277;49.890;8.222;2023-12-14T01:30:16;22.50;69.50
2995;DHT22;35277;49.890;8.222;2023-12-14T01:32:44;22.50;69.40
2995;DHT22;35277;49.890;8.222;2023-12-14T01:35:12;22.50;69.40
2995;DHT22;35277;49.890;8.222;2023-12-14T01:37:40;22.50;69.40
2995;DHT22;35277;49.890;8.222;2023-12-14T01:40:10;22.50;69.40
2995;DHT22;35277;49.890;8.222;2023-12-14T01:42:38;22.50;69.40
2995;DHT22;35277;49.890;8.222;2023-12-14T01:45:06;22.50;69.40
2995;DHT22;35277;49.890;8.222;2023-12-14T01:47:34;22.50;69.40
2995;DHT22;35277;49.890;8.222;2023-12-14T01:50:03;22.50;69.40
2995;DHT22;35277;49.890;8.222;2023-12-14T01:52:30;22.50;69.40
2995;DHT22;35277;49.890;8.222;2023-12-14T01:54:59;22.50;69.40
2995;DHT22;35277;49.890;8.222;2023-12-14T01:57:30;22.50;69.40
2995;DHT22;35277;49.890;8.222;2023-12-14T01:59:58;22.50;69.30
2995;DHT22;35277;49.890;8.222;2023-12-14T02:02:26;22.50;69.40
2995;DHT22;35277;49.890;8.222;2023-12-14T02:04:53;22.50;69.30
2995;DHT22;35277;49.890;8.222;2023-12-14T02:07:21;22.50;69.30
2995;DHT22;35277;49.890;8.222;2023-12-14T02:09:49;22.50;69.30
2995;DHT22;35277;49.890;8.222;2023-12-14T02:12:17;22.50;69.30
2995;DHT22;35277;49.890;8.222;2023-12-14T02:14:48;22.50;69.30
2995;DHT22;35277;49.890;8.222;2023-12-14T02:17:16;22.50;69.30
2995;DHT22;35277;49.890;8.222;2023-12-14T02:19:44;22.50;69.30
2995;DHT22;35277;49.890;8.222;2023-12-14T02:22:11;22.50;69.30
2995;DHT22;35277;49.890;8.222;2023-12-14T02:24:40;22.50;69.20
2995;DHT22;35277;49.890;8.222;2023-12-14T02:27:08;22.50;69.20
2995;DHT22;35277;49.890;8.222;2023-12-14T02:29:36;22.50;69.20
2995;DHT22;35277;49.890;8.222;2023-12-14T02:32:04;22.50;69.20
2995;DHT22;35277;49.890;8.222;2023-12-14T02:34:32;22.50;69.10
2995;DHT22;35277;49.890;8.222;2023-12-14T02:37:00;22.50;69.20
2995;DHT22;35277;49.890;8.222;2023-12-14T02:39:28;22.50;69.10
2995;DHT22;35277;49.890;8.222;2023-12-14T02:41:57;22.50;69.20
2995;DHT22;35277;49.890;8.222;2023-12-14T02:44:24;22.50;69.10
2995;DHT22;35277;49.890;8.222;2023-12-14T02:46:52;22.50;69.10
2995;DHT22;35277;49.890;8.222;2023-12-14T02:49:20;22.50;69.20
2995;DHT22;35277;49.890;8.222;2023-12-14T02:51:48;22.50;69.10
2995;DHT22;35277;49.890;8.222;2023-12-14T02:54:16;22.50;69.10
2995;DHT22;35277;49.890;8.222;2023-12-14T02:56:44;22.50;69.10
2995;DHT22;35277;49.890;8.222;2023-12-14T02:59:13;22.50;69.10
2995;DHT22;35277;49.890;8.222;2023-12-14T03:01:40;22.50;69.10
2995;DHT22;35277;49.890;8.222;2023-12-14T03:04:08;22.50;69.10
2995;DHT22;35277;49.890;8.222;2023-12-14T03:06:36;22.50;69.10
2995;DHT22;35277;49.890;8.222;2023-12-14T03:09:04;22.50;69.10
2995;DHT22;35277;49.890;8.222;2023-12-14T03:11:32;22.50;69.00
2995;DHT22;35277;49.890;8.222;2023-12-14T03:13:59;22.50;69.00
2995;DHT22;35277;49.890;8.222;2023-12-14T03:16:29;22.50;69.00
2995;DHT22;35277;49.890;8.222;2023-12-14T03:18:57;22.50;69.00
2995;DHT22;35277;49.890;8.222;2023-12-14T03:21:24;22.50;69.00
2995;DHT22;35277;49.890;8.222;2023-12-14T03:23:52;22.50;69.00
2995;DHT22;35277;49.890;8.222;2023-12-14T03:26:20;22.50;69.00
2995;DHT22;35277;49.890;8.222;2023-12-14T03:28:48;22.50;69.00
2995;DHT22;35277;49.890;8.222;2023-12-14T03:31:16;22.50;69.00
2995;DHT22;35277;49.890;8.222;2023-12-14T03:33:45;22.50;69.00
2995;DHT22;35277;49.890;8.222;2023-12-14T03:36:13;22.50;69.00
2995;DHT22;35277;49.890;8.222;2023-12-14T03:38:41;22.50;68.90
2995;DHT22;35277;49.890;8.222;2023-12-14T03:41:09;22.50;69.00
2995;DHT22;35277;49.890;8.222;2023-12-14T03:43:37;22.50;68.90
2995;DHT22;35277;49.890;8.222;2023-12-14T03:46:05;22.50;68.90
2995;DHT22;35277;49.890;8.222;2023-12-14T03:48:33;22.50;68.90
2995;DHT22;35277;49.890;8.222;2023-12-14T03:51:04;22.50;69.00
2995;DHT22;35277;49.890;8.222;2023-12-14T03:53:32;22.50;68.90
2995;DHT22;35277;49.890;8.222;2023-12-14T03:56:00;22.50;68.90
2995;DHT22;35277;49.890;8.222;2023-12-14T03:58:28;22.50;68.90
2995;DHT22;35277;49.890;8.222;2023-12-14T04:00:56;22.50;68.90
2995;DHT22;35277;49.890;8.222;2023-12-14T04:03:23;22.50;68.90
2995;DHT22;35277;49.890;8.222;2023-12-14T04:05:51;22.50;68.90
2995;DHT22;35277;49.890;8.222;2023-12-14T04:08:21;22.50;68.90
2995;DHT22;35277;49.890;8.222;2023-12-14T04:10:48;22.50;68.90
2995;DHT22;35277;49.890;8.222;2023-12-14T04:13:16;22.50;68.90
2995;DHT22;35277;49.890;8.222;2023-12-14T04:15:44;22.50;68.90
2995;DHT22;35277;49.890;8.222;2023-12-14T04:18:12;22.50;68.90
2995;DHT22;35277;49.890;8.222;2023-12-14T04:20:40;22.50;68.90
2995;DHT22;35277;49.890;8.222;2023-12-14T04:23:08;22.50;68.90
2995;DHT22;35277;49.890;8.222;2023-12-14T04:25:37;22.50;68.90
2995;DHT22;35277;49.890;8.222;2023-12-14T04:28:05;22.50;68.90
2995;DHT22;35277;49.890;8.222;2023-12-14T04:30:32;22.50;68.90
2995;DHT22;35277;49.890;8.222;2023-12-14T04:33:00;22.50;68.90
2995;DHT22;35277;49.890;8.222;2023-12-14T04:35:28;22.50;68.90
2995;DHT22;35277;49.890;8.222;2023-12-14T04:37:57;22.50;68.90
2995;DHT22;35277;49.890;8.222;2023-12-14T04:40:25;22.50;68.90
2995;DHT22;35277;49.890;8.222;2023-12-14T04:42:54;22.50;68.90
2995;DHT22;35277;49.890;8.222;2023-12-14T04:45:22;22.50;68.90
2995;DHT22;35277;49.890;8.222;2023-12-14T04:47:50;22.50;68.90
2995;DHT22;35277;49.890;8.222;2023-12-14T04:50:18;22.50;68.90
2995;DHT22;35277;49.890;8.222;2023-12-14T04:52:46;22.50;69.00
2995;DHT22;35277;49.890;8.222;2023-12-14T04:55:14;22.50;69.00
2995;DHT22;35277;49.890;8.222;2023-12-14T04:57:41;22.50;69.10
2995;DHT22;35277;49.890;8.222;2023-12-14T05:00:12;22.50;69.10
2995;DHT22;35277;49.890;8.222;2023-12-14T05:02:40;22.50;69.20
2995;DHT22;35277;49.890;8.222;2023-12-14T05:05:08;22.50;69.20
2995;DHT22;35277;49.890;8.222;2023-12-14T05:07:36;22.50;69.30
2995;DHT22;35277;49.890;8.222;2023-12-14T05:10:05;22.50;69.30
2995;DHT22;35277;49.890;8.222;2023-12-14T05:12:33;22.50;69.30
2995;DHT22;35277;49.890;8.222;2023-12-14T05:15:01;22.50;69.30
2995;DHT22;35277;49.890;8.222;2023-12-14T05:17:30;22.50;69.30
2995;DHT22;35277;49.890;8.222;2023-12-14T05:19:58;22.50;69.30
2995;DHT22;35277;49.890;8.222;2023-12-14T05:22:26;22.50;69.30
2995;DHT22;35277;49.890;8.222;2023-12-14T05:24:54;22.50;69.20
2995;DHT22;35277;49.890;8.222;2023-12-14T05:27:22;22.50;69.20
2995;DHT22;35277;49.890;8.222;2023-12-14T05:29:50;22.50;69.20
2995;DHT22;35277;49.890;8.222;2023-12-14T05:32:18;22.50;69.20
2995;DHT22;35277;49.890;8.222;2023-12-14T05:34:47;22.50;69.10
2995;DHT22;35277;49.890;8.222;2023-12-14T05:37:15;22.50;69.10
2995;DHT22;35277;49.890;8.222;2023-12-14T05:39:43;22.50;69.10
2995;DHT22;35277;49.890;8.222;2023-12-14T05:42:12;22.50;69.00
2995;DHT22;35277;49.890;8.222;2023-12-14T05:44:41;22.50;69.00
2995;DHT22;35277;49.890;8.222;2023-12-14T05:47:09;22.50;68.90
2995;DHT22;35277;49.890;8.222;2023-12-14T05:49:40;22.50;68.90
2995;DHT22;35277;49.890;8.222;2023-12-14T05:52:09;22.50;68.90
2995;DHT22;35277;49.890;8.222;2023-12-14T05:54:37;22.50;68.90
2995;DHT22;35277;49.890;8.222;2023-12-14T05:57:06;22.50;68.80
2995;DHT22;35277;49.890;8.222;2023-12-14T05:59:34;22.50;68.80
2995;DHT22;35277;49.890;8.222;2023-12-14T06:02:02;22.50;68.70
2995;DHT22;35277;49.890;8.222;2023-12-14T06:04:30;22.50;68.70
2995;DHT22;35277;49.890;8.222;2023-12-14T06:06:58;22.50;68.70
2995;DHT22;35277;49.890;8.222;2023-12-14T06:09:27;22.40;68.70
2995;DHT22;35277;49.890;8.222;2023-12-14T06:12:00;22.50;68.90
2995;DHT22;35277;49.890;8.222;2023-12-14T06:14:29;22.50;68.90
2995;DHT22;35277;49.890;8.222;2023-12-14T06:16:58;22.50;68.90
2995;DHT22;35277;49.890;8.222;2023-12-14T06:19:26;22.50;68.90
2995;DHT22;35277;49.890;8.222;2023-12-14T06:21:54;22.50;68.90
2995;DHT22;35277;49.890;8.222;2023-12-14T06:24:21;22.50;69.00
2995;DHT22;35277;49.890;8.222;2023-12-14T06:26:50;22.50;69.00
2995;DHT22;35277;49.890;8.222;2023-12-14T06:29:18;22.50;69.00
2995;DHT22;35277;49.890;8.222;2023-12-14T06:31:46;22.50;69.10
2995;DHT22;35277;49.890;8.222;2023-12-14T06:34:14;22.50;69.10
2995;DHT22;35277;49.890;8.222;2023-12-14T06:36:43;22.50;69.10
2995;DHT22;35277;49.890;8.222;2023-12-14T06:39:12;22.50;69.10
2995;DHT22;35277;49.890;8.222;2023-12-14T06:41:39;22.50;69.10
2995;DHT22;35277;49.890;8.222;2023-12-14T06:44:09;22.50;69.10
2995;DHT22;35277;49.890;8.222;2023-12-14T06:46:37;22.50;69.10
2995;DHT22;35277;49.890;8.222;2023-12-14T06:49:05;22.50;69.10
2995;DHT22;35277;49.890;8.222;2023-12-14T06:51:32;22.50;69.10
2995;DHT22;35277;49.890;8.222;2023-12-14T06:54:00;22.50;69.10
2995;DHT22;35277;49.890;8.222;2023-12-14T06:56:28;22.50;69.00
2995;DHT22;35277;49.890;8.222;2023-12-14T06:58:56;22.50;68.90
2995;DHT22;35277;49.890;8.222;2023-12-14T07:01:25;22.50;68.90
2995;DHT22;35277;49.890;8.222;2023-12-14T07:03:53;22.50;68.90
2995;DHT22;35277;49.890;8.222;2023-12-14T07:06:21;22.50;68.80
2995;DHT22;35277;49.890;8.222;2023-12-14T07:08:49;22.50;68.80
2995;DHT22;35277;49.890;8.222;2023-12-14T07:11:17;22.50;68.70
2995;DHT22;35277;49.890;8.222;2023-12-14T07:13:44;22.50;68.70
2995;DHT22;35277;49.890;8.222;2023-12-14T07:16:13;22.50;68.70
2995;DHT22;35277;49.890;8.222;2023-12-14T07:18:43;22.50;68.60
2995;DHT22;35277;49.890;8.222;2023-12-14T07:21:11;22.50;68.60
2995;DHT22;35277;49.890;8.222;2023-12-14T07:23:39;22.50;68.60
2995;DHT22;35277;49.890;8.222;2023-12-14T07:26:07;22.50;68.60
2995;DHT22;35277;49.890;8.222;2023-12-14T07:28:35;22.50;68.60
2995;DHT22;35277;49.890;8.222;2023-12-14T07:31:03;22.50;68.50
2995;DHT22;35277;49.890;8.222;2023-12-14T07:33:31;22.50;68.60
2995;DHT22;35277;49.890;8.222;2023-12-14T07:36:01;22.50;68.50
2995;DHT22;35277;49.890;8.222;2023-12-14T07:38:29;22.50;68.50
2995;DHT22;35277;49.890;8.222;2023-12-14T07:40:56;22.50;68.50
2995;DHT22;35277;49.890;8.222;2023-12-14T07:43:24;22.50;68.50
2995;DHT22;35277;49.890;8.222;2023-12-14T07:45:52;22.50;68.50
2995;DHT22;35277;49.890;8.222;2023-12-14T07:48:20;22.50;68.50
2995;DHT22;35277;49.890;8.222;2023-12-14T07:50:48;22.50;68.40
2995;DHT22;35277;49.890;8.222;2023-12-14T07:53:17;22.50;68.40
2995;DHT22;35277;49.890;8.222;2023-12-14T07:55:45;22.50;68.40
2995;DHT22;35277;49.890;8.222;2023-12-14T07:58:13;22.50;68.40
2995;DHT22;35277;49.890;8.222;2023-12-14T08:00:41;22.50;68.40
2995;DHT22;35277;49.890;8.222;2023-12-14T08:03:08;22.50;68.30
2995;DHT22;35277;49.890;8.222;2023-12-14T08:05:36;22.50;68.30
2995;DHT22;35277;49.890;8.222;2023-12-14T08:08:04;22.50;68.30
2995;DHT22;35277;49.890;8.222;2023-12-14T08:10:33;22.50;68.30
2995;DHT22;35277;49.890;8.222;2023-12-14T08:13:01;22.50;68.30
2995;DHT22;35277;49.890;8.222;2023-12-14T08:15:29;22.50;68.30
2995;DHT22;35277;49.890;8.222;2023-12-14T08:17:57;22.50;68.30
2995;DHT22;35277;49.890;8.222;2023-12-14T08:20:25;22.50;68.30
2995;DHT22;35277;49.890;8.222;2023-12-14T08:22:53;22.50;68.30
2995;DHT22;35277;49.890;8.222;2023-12-14T08:25:21;22.50;68.30
2995;DHT22;35277;49.890;8.222;2023-12-14T08:27:50;22.50;68.20
2995;DHT22;35277;49.890;8.222;2023-12-14T08:30:18;22.50;68.20
2995;DHT22;35277;49.890;8.222;2023-12-14T08:32:46;22.50;68.20
2995;DHT22;35277;49.890;8.222;2023-12-14T08:35:14;22.50;68.20
2995;DHT22;35277;49.890;8.222;2023-12-14T08:37:42;22.40;68.10
2995;DHT22;35277;49.890;8.222;2023-12-14T08:40:11;22.50;68.20
2995;DHT22;35277;49.890;8.222;2023-12-14T08:42:39;22.50;68.20
2995;DHT22;35277;49.890;8.222;2023-12-14T08:45:09;22.50;68.10
2995;DHT22;35277;49.890;8.222;2023-12-14T08:47:39;22.50;68.10
2995;DHT22;35277;49.890;8.222;2023-12-14T08:50:07;22.50;68.10
2995;DHT22;35277;49.890;8.222;2023-12-14T08:52:35;22.50;68.10
2995;DHT22;35277;49.890;8.222;2023-12-14T08:55:05;22.50;68.10
2995;DHT22;35277;49.890;8.222;2023-12-14T08:57:33;22.50;68.10
2995;DHT22;35277;49.890;8.222;2023-12-14T09:00:02;22.50;68.10
2995;DHT22;35277;49.890;8.222;2023-12-14T09:02:32;22.50;68.10
2995;DHT22;35277;49.890;8.222;2023-12-14T09:05:01;22.50;68.10
2995;DHT22;35277;49.890;8.222;2023-12-14T09:07:29;22.50;68.00
2995;DHT22;35277;49.890;8.222;2023-12-14T09:09:57;22.50;67.80
2995;DHT22;35277;49.890;8.222;2023-12-14T09:12:25;22.40;67.70
2995;DHT22;35277;49.890;8.222;2023-12-14T09:14:53;22.50;67.70
2995;DHT22;35277;49.890;8.222;2023-12-14T09:17:22;22.50;67.60
2995;DHT22;35277;49.890;8.222;2023-12-14T09:19:51;22.40;67.40
2995;DHT22;35277;49.890;8.222;2023-12-14T09:22:18;22.40;67.20
2995;DHT22;35277;49.890;8.222;2023-12-14T09:24:46;22.50;67.20
2995;DHT22;35277;49.890;8.222;2023-12-14T09:27:14;22.40;66.90
2995;DHT22;35277;49.890;8.222;2023-12-14T09:29:42;22.40;66.80
2995;DHT22;35277;49.890;8.222;2023-12-14T09:32:09;22.40;66.60
2995;DHT22;35277;49.890;8.222;2023-12-14T09:34:37;22.40;66.40
2995;DHT22;35277;49.890;8.222;2023-12-14T09:37:07;22.40;66.30
2995;DHT22;35277;49.890;8.222;2023-12-14T09:39:34;22.40;66.30
2995;DHT22;35277;49.890;8.222;2023-12-14T09:42:03;22.40;66.10
2995;DHT22;35277;49.890;8.222;2023-12-14T09:44:32;22.40;65.90
2995;DHT22;35277;49.890;8.222;2023-12-14T09:47:01;22.40;65.80
2995;DHT22;35277;49.890;8.222;2023-12-14T09:49:30;22.40;65.80
2995;DHT22;35277;49.890;8.222;2023-12-14T09:51:59;22.40;65.70
2995;DHT22;35277;49.890;8.222;2023-12-14T09:54:28;22.40;65.60
2995;DHT22;35277;49.890;8.222;2023-12-14T09:56:56;22.40;65.60
2995;DHT22;35277;49.890;8.222;2023-12-14T09:59:24;22.40;65.70
2995;DHT22;35277;49.890;8.222;2023-12-14T10:01:51;22.40;65.70
2995;DHT22;35277;49.890;8.222;2023-12-14T10:04:20;22.40;65.70
2995;DHT22;35277;49.890;8.222;2023-12-14T10:06:49;22.40;65.70
2995;DHT22;35277;49.890;8.222;2023-12-14T10:09:22;22.40;65.70
2995;DHT22;35277;49.890;8.222;2023-12-14T10:12:04;22.40;65.70
2995;DHT22;35277;49.890;8.222;2023-12-14T10:14:32;22.40;65.80
2995;DHT22;35277;49.890;8.222;2023-12-14T10:17:14;22.40;65.80
2995;DHT22;35277;49.890;8.222;2023-12-14T10:19:44;22.40;65.80
2995;DHT22;35277;49.890;8.222;2023-12-14T10:22:14;22.40;65.80
2995;DHT22;35277;49.890;8.222;2023-12-14T10:24:44;22.40;65.80
2995;DHT22;35277;49.890;8.222;2023-12-14T10:27:14;22.40;65.80
2995;DHT22;35277;49.890;8.222;2023-12-14T10:29:42;22.40;65.80
2995;DHT22;35277;49.890;8.222;2023-12-14T10:32:11;22.40;65.80
2995;DHT22;35277;49.890;8.222;2023-12-14T10:34:40;22.50;66.00
2995;DHT22;35277;49.890;8.222;2023-12-14T10:37:09;22.50;66.00
2995;DHT22;35277;49.890;8.222;2023-12-14T10:39:38;22.40;65.90
2995;DHT22;35277;49.890;8.222;2023-12-14T10:42:09;22.50;66.00
2995;DHT22;35277;49.890;8.222;2023-12-14T10:44:49;22.40;65.90
2995;DHT22;35277;49.890;8.222;2023-12-14T10:47:21;22.40;65.90
2995;DHT22;35277;49.890;8.222;2023-12-14T10:49:50;22.50;66.10
2995;DHT22;35277;49.890;8.222;2023-12-14T10:52:20;22.50;66.10
2995;DHT22;35277;49.890;8.222;2023-12-14T10:54:49;22.50;66.10
2995;DHT22;35277;49.890;8.222;2023-12-14T10:57:20;22.50;66.10
2995;DHT22;35277;49.890;8.222;2023-12-14T10:59:50;22.50;66.20
2995;DHT22;35277;49.890;8.222;2023-12-14T11:02:22;22.50;66.20
2995;DHT22;35277;49.890;8.222;2023-12-14T11:04:55;22.50;66.30
2995;DHT22;35277;49.890;8.222;2023-12-14T11:07:43;22.50;66.20
2995;DHT22;35277;49.890;8.222;2023-12-14T11:10:11;22.50;65.80
2995;DHT22;35277;49.890;8.222;2023-12-14T11:12:56;22.40;65.20
2995;DHT22;35277;49.890;8.222;2023-12-14T11:15:28;22.40;64.60
2995;DHT22;35277;49.890;8.222;2023-12-14T11:18:21;22.30;64.10
2995;DHT22;35277;49.890;8.222;2023-12-14T11:20:51;22.30;64.10
2995;DHT22;35277;49.890;8.222;2023-12-14T11:23:27;22.30;64.20
2995;DHT22;35277;49.890;8.222;2023-12-14T11:25:58;22.30;64.30
2995;DHT22;35277;49.890;8.222;2023-12-14T11:28:27;22.30;64.30
2995;DHT22;35277;49.890;8.222;2023-12-14T11:30:58;22.30;64.30
2995;DHT22;35277;49.890;8.222;2023-12-14T11:33:25;22.30;64.30
2995;DHT22;35277;49.890;8.222;2023-12-14T11:35:55;22.30;64.30
2995;DHT22;35277;49.890;8.222;2023-12-14T11:38:24;22.30;64.40
2995;DHT22;35277;49.890;8.222;2023-12-14T11:40:52;22.30;64.40
2995;DHT22;35277;49.890;8.222;2023-12-14T11:43:20;22.30;64.40
2995;DHT22;35277;49.890;8.222;2023-12-14T11:45:49;22.30;64.40
2995;DHT22;35277;49.890;8.222;2023-12-14T11:48:18;22.30;64.40
2995;DHT22;35277;49.890;8.222;2023-12-14T11:50:47;22.40;64.50
2995;DHT22;35277;49.890;8.222;2023-12-14T11:53:15;22.40;64.60
2995;DHT22;35277;49.890;8.222;2023-12-14T11:55:45;22.40;64.60
2995;DHT22;35277;49.890;8.222;2023-12-14T11:58:13;22.40;64.70
2995;DHT22;35277;49.890;8.222;2023-12-14T12:00:43;22.40;64.70
2995;DHT22;35277;49.890;8.222;2023-12-14T12:03:14;22.40;64.70
2995;DHT22;35277;49.890;8.222;2023-12-14T12:05:45;22.40;64.80
2995;DHT22;35277;49.890;8.222;2023-12-14T12:08:15;22.40;64.80
2995;DHT22;35277;49.890;8.222;2023-12-14T12:10:46;22.40;64.80
2995;DHT22;35277;49.890;8.222;2023-12-14T12:13:15;22.40;64.80
2995;DHT22;35277;49.890;8.222;2023-12-14T12:15:43;22.50;65.00
2995;DHT22;35277;49.890;8.222;2023-12-14T12:18:13;22.50;65.00
2995;DHT22;35277;49.890;8.222;2023-12-14T12:20:41;22.50;65.00
2995;DHT22;35277;49.890;8.222;2023-12-14T12:23:10;22.50;65.10
2995;DHT22;35277;49.890;8.222;2023-12-14T12:25:38;22.50;65.10
2995;DHT22;35277;49.890;8.222;2023-12-14T12:28:06;22.50;65.10
2995;DHT22;35277;49.890;8.222;2023-12-14T12:30:34;22.50;65.10
2995;DHT22;35277;49.890;8.222;2023-12-14T12:33:06;22.50;65.10
2995;DHT22;35277;49.890;8.222;2023-12-14T12:35:33;22.50;65.10
2995;DHT22;35277;49.890;8.222;2023-12-14T12:38:01;22.50;65.20
2995;DHT22;35277;49.890;8.222;2023-12-14T12:40:31;22.50;65.20
2995;DHT22;35277;49.890;8.222;2023-12-14T12:43:00;22.60;65.30
2995;DHT22;35277;49.890;8.222;2023-12-14T12:45:27;22.50;65.20
2995;DHT22;35277;49.890;8.222;2023-12-14T12:47:55;22.50;65.20
2995;DHT22;35277;49.890;8.222;2023-12-14T12:50:24;22.50;65.20
2995;DHT22;35277;49.890;8.222;2023-12-14T12:52:52;22.50;65.20
2995;DHT22;35277;49.890;8.222;2023-12-14T12:55:20;22.50;65.30
2995;DHT22;35277;49.890;8.222;2023-12-14T12:57:49;22.50;65.30
2995;DHT22;35277;49.890;8.222;2023-12-14T13:00:17;22.50;65.30
2995;DHT22;35277;49.890;8.222;2023-12-14T13:02:46;22.50;65.30
2995;DHT22;35277;49.890;8.222;2023-12-14T13:05:14;22.50;65.30
2995;DHT22;35277;49.890;8.222;2023-12-14T13:07:45;22.50;65.40
2995;DHT22;35277;49.890;8.222;2023-12-14T13:10:13;22.50;65.40
2995;DHT22;35277;49.890;8.222;2023-12-14T13:12:57;22.50;65.40
2995;DHT22;35277;49.890;8.222;2023-12-14T13:15:27;22.50;65.40
2995;DHT22;35277;49.890;8.222;2023-12-14T13:17:57;22.50;65.40
2995;DHT22;35277;49.890;8.222;2023-12-14T13:20:25;22.50;65.40
2995;DHT22;35277;49.890;8.222;2023-12-14T13:22:53;22.50;65.40
2995;DHT22;35277;49.890;8.222;2023-12-14T13:25:21;22.50;65.40
2995;DHT22;35277;49.890;8.222;2023-12-14T13:27:52;22.50;65.40
2995;DHT22;35277;49.890;8.222;2023-12-14T13:30:21;22.50;65.40
2995;DHT22;35277;49.890;8.222;2023-12-14T13:32:50;22.50;65.40
2995;DHT22;35277;49.890;8.222;2023-12-14T13:35:20;22.50;65.40
2995;DHT22;35277;49.890;8.222;2023-12-14T13:37:49;22.50;65.40
2995;DHT22;35277;49.890;8.222;2023-12-14T13:40:16;22.50;65.40
2995;DHT22;35277;49.890;8.222;2023-12-14T13:42:45;22.50;65.50
2995;DHT22;35277;49.890;8.222;2023-12-14T13:45:30;22.50;65.50
2995;DHT22;35277;49.890;8.222;2023-12-14T13:47:58;22.50;65.50
2995;DHT22;35277;49.890;8.222;2023-12-14T13:50:26;22.50;65.50
2995;DHT22;35277;49.890;8.222;2023-12-14T13:52:55;22.50;65.50
2995;DHT22;35277;49.890;8.222;2023-12-14T13:55:23;22.50;65.50
2995;DHT22;35277;49.890;8.222;2023-12-14T13:57:51;22.50;65.50
2995;DHT22;35277;49.890;8.222;2023-12-14T14:00:20;22.50;65.50
2995;DHT22;35277;49.890;8.222;2023-12-14T14:02:49;22.50;65.50
2995;DHT22;35277;49.890;8.222;2023-12-14T14:05:17;22.50;65.50
2995;DHT22;35277;49.890;8.222;2023-12-14T14:07:45;22.50;65.50
2995;DHT22;35277;49.890;8.222;2023-12-14T14:10:14;22.50;65.50
2995;DHT22;35277;49.890;8.222;2023-12-14T14:12:42;22.50;65.50
2995;DHT22;35277;49.890;8.222;2023-12-14T14:15:09;22.50;65.50
2995;DHT22;35277;49.890;8.222;2023-12-14T14:17:37;22.50;65.50
2995;DHT22;35277;49.890;8.222;2023-12-14T14:20:07;22.50;65.50
2995;DHT22;35277;49.890;8.222;2023-12-14T14:22:36;22.50;65.50
2995;DHT22;35277;49.890;8.222;2023-12-14T14:25:05;22.50;65.50
2995;DHT22;35277;49.890;8.222;2023-12-14T14:27:34;22.50;65.50
2995;DHT22;35277;49.890;8.222;2023-12-14T14:30:03;22.50;65.50
2995;DHT22;35277;49.890;8.222;2023-12-14T14:32:31;22.50;65.50
2995;DHT22;35277;49.890;8.222;2023-12-14T14:34:59;22.50;65.50
2995;DHT22;35277;49.890;8.222;2023-12-14T14:37:29;22.50;65.50
2995;DHT22;35277;49.890;8.222;2023-12-14T14:39:56;22.50;65.50
2995;DHT22;35277;49.890;8.222;2023-12-14T14:42:24;22.50;65.50
2995;DHT22;35277;49.890;8.222;2023-12-14T14:44:52;22.50;65.50
2995;DHT22;35277;49.890;8.222;2023-12-14T14:47:20;22.50;65.50
2995;DHT22;35277;49.890;8.222;2023-12-14T14:49:48;22.50;65.50
2995;DHT22;35277;49.890;8.222;2023-12-14T14:52:16;22.50;65.50
2995;DHT22;35277;49.890;8.222;2023-12-14T14:54:45;22.50;65.50
2995;DHT22;35277;49.890;8.222;2023-12-14T14:57:13;22.50;65.40
2995;DHT22;35277;49.890;8.222;2023-12-14T14:59:41;22.50;65.40
2995;DHT22;35277;49.890;8.222;2023-12-14T15:02:09;22.50;65.40
2995;DHT22;35277;49.890;8.222;2023-12-14T15:04:37;22.50;65.40
2995;DHT22;35277;49.890;8.222;2023-12-14T15:07:04;22.50;65.40
2995;DHT22;35277;49.890;8.222;2023-12-14T15:09:32;22.50;65.40
2995;DHT22;35277;49.890;8.222;2023-12-14T15:12:01;22.50;65.40
2995;DHT22;35277;49.890;8.222;2023-12-14T15:14:29;22.50;65.40
2995;DHT22;35277;49.890;8.222;2023-12-14T15:16:57;22.50;65.40
2995;DHT22;35277;49.890;8.222;2023-12-14T15:19:25;22.50;65.40
2995;DHT22;35277;49.890;8.222;2023-12-14T15:21:53;22.50;65.40
2995;DHT22;35277;49.890;8.222;2023-12-14T15:24:21;22.50;65.40
2995;DHT22;35277;49.890;8.222;2023-12-14T15:26:48;22.50;65.40
2995;DHT22;35277;49.890;8.222;2023-12-14T15:29:18;22.50;65.40
2995;DHT22;35277;49.890;8.222;2023-12-14T15:31:47;22.50;65.40
2995;DHT22;35277;49.890;8.222;2023-12-14T15:34:15;22.50;65.40
2995;DHT22;35277;49.890;8.222;2023-12-14T15:36:45;22.50;65.40
2995;DHT22;35277;49.890;8.222;2023-12-14T15:39:13;22.50;65.40
2995;DHT22;35277;49.890;8.222;2023-12-14T15:41:41;22.50;65.40
2995;DHT22;35277;49.890;8.222;2023-12-14T15:44:09;22.50;65.40
2995;DHT22;35277;49.890;8.222;2023-12-14T15:46:38;22.50;65.40
2995;DHT22;35277;49.890;8.222;2023-12-14T15:49:06;22.50;65.40
2995;DHT22;35277;49.890;8.222;2023-12-14T15:51:34;22.50;65.40
2995;DHT22;35277;49.890;8.222;2023-12-14T15:54:01;22.50;65.40